Time;durP1;ratioP1;P1;durP2;ratioP2;P2;SDS_P1;SDS_P2;PMS_P1;PMS_P2;Temp;Humidity;BMP_temperature;BMP_pressure;BME280_temperature;BME280_humidity;BME280_pressure;Samples;Min_cycle;Max_cycle;Signal;HPM_P1;HPM_P2
2022/03/04 00:00:19;;;;;;;39.80;15.45;;;;;;;2.24;92.87;101614.19;5102049;28;20024;-83
2022/03/04 00:02:45;;;;;;;37.40;15.40;;;;;;;2.10;93.69;101589.44;5097891;28;20082;-83
2022/03/04 00:05:10;;;;;;;37.65;16.45;;;;;;;2.20;94.00;101615.25;5085099;28;20020;-83
2022/03/04 00:07:36;;;;;;;39.28;16.20;;;;;;;2.23;93.92;101617.84;5085285;28;20029;-83
2022/03/04 00:10:01;;;;;;;44.35;16.58;;;;;;;2.17;93.81;101618.03;5087863;28;20054;-82
2022/03/04 00:12:27;;;;;;;37.80;15.45;;;;;;;2.11;94.50;101607.41;5115244;28;20032;-82
2022/03/04 00:14:53;;;;;;;36.15;14.70;;;;;;;2.24;94.14;101607.91;5105413;28;20549;-82
2022/03/04 00:17:18;;;;;;;42.33;16.20;;;;;;;2.25;93.31;101613.25;5085168;28;20032;-83
2022/03/04 00:19:44;;;;;;;37.03;16.13;;;;;;;2.31;93.26;101618.47;5109977;28;20024;-82
2022/03/04 00:22:09;;;;;;;38.45;15.02;;;;;;;2.21;92.54;101598.06;5088562;28;20084;-82
2022/03/04 00:24:35;;;;;;;44.75;16.15;;;;;;;2.18;92.18;101592.75;5103220;28;20036;-82
2022/03/04 00:27:00;;;;;;;52.28;17.73;;;;;;;2.30;92.42;101627.50;5084630;28;20518;-83
2022/03/04 00:29:26;;;;;;;57.33;16.83;;;;;;;2.27;92.60;101629.44;5084880;28;20024;-82
2022/03/04 00:31:51;;;;;;;44.22;17.48;;;;;;;2.31;92.83;101631.09;5087972;28;20537;-83
2022/03/04 00:34:17;;;;;;;36.70;16.25;;;;;;;2.23;93.11;101616.94;5101477;28;20041;-83
2022/03/04 00:36:42;;;;;;;41.25;17.25;;;;;;;2.25;92.88;101632.19;5086438;28;20112;-83
2022/03/04 00:39:11;;;;;;;42.97;16.58;;;;;;;2.20;92.73;101637.72;5086829;28;20055;-83
2022/03/04 00:41:37;;;;;;;39.38;17.83;;;;;;;2.16;93.19;101640.56;5066355;28;20045;-82
2022/03/04 00:44:04;;;;;;;45.70;17.08;;;;;;;2.14;93.89;101642.44;5084619;28;20032;-83
2022/03/04 00:46:29;;;;;;;43.55;17.65;;;;;;;2.08;93.47;101635.38;5120847;28;20027;-82
2022/03/04 00:48:54;;;;;;;43.80;16.58;;;;;;;2.04;94.02;101640.97;5087603;28;20032;-82
2022/03/04 00:51:21;;;;;;;41.83;17.15;;;;;;;2.01;93.67;101640.09;5083204;28;20655;-83
2022/03/04 00:53:47;;;;;;;39.67;16.67;;;;;;;1.99;94.39;101641.97;5082856;28;20103;-83
2022/03/04 00:56:12;;;;;;;38.63;16.30;;;;;;;1.99;94.22;101641.97;5089067;28;20017;-83
2022/03/04 00:58:39;;;;;;;38.45;17.60;;;;;;;1.91;94.21;101630.53;5060300;28;20068;-83
2022/03/04 01:01:06;;;;;;;40.58;16.75;;;;;;;1.89;94.12;101637.78;5060183;28;20037;-82
2022/03/04 01:03:32;;;;;;;38.35;16.90;;;;;;;1.85;94.30;101641.50;5067540;28;20036;-84
2022/03/04 01:05:59;;;;;;;41.05;17.48;;;;;;;1.81;95.17;101634.44;5093563;28;20036;-83
2022/03/04 01:08:25;;;;;;;38.58;17.27;;;;;;;1.61;95.29;101602.66;5060275;28;20040;-82
2022/03/04 01:10:50;;;;;;;45.80;17.38;;;;;;;1.74;95.94;101635.53;5068551;28;20038;-82
2022/03/04 01:13:17;;;;;;;44.78;18.50;;;;;;;1.34;95.78;101577.34;5073899;28;20036;-83
2022/03/04 01:15:43;;;;;;;38.45;16.73;;;;;;;1.28;96.24;101582.00;5078750;28;20021;-82
2022/03/04 01:18:09;;;;;;;42.40;17.35;;;;;;;1.36;97.08;101605.16;5063729;28;20039;-82
2022/03/04 01:20:35;;;;;;;41.65;17.80;;;;;;;1.54;97.17;101634.34;5081135;28;20433;-81
2022/03/04 01:23:01;;;;;;;46.35;17.48;;;;;;;1.34;97.25;101612.44;5067923;28;20046;-83
2022/03/04 01:25:27;;;;;;;41.45;17.98;;;;;;;1.37;98.71;101634.78;5099127;28;20045;-82
2022/03/04 01:27:53;;;;;;;40.03;18.35;;;;;;;1.29;99.39;101637.69;5080070;28;20044;-82
2022/03/04 01:30:19;;;;;;;41.85;17.75;;;;;;;1.36;98.97;101634.84;5079729;28;20391;-80
2022/03/04 01:32:46;;;;;;;48.95;17.48;;;;;;;1.23;99.28;101607.31;5063296;28;20020;-82
2022/03/04 01:35:13;;;;;;;45.35;17.17;;;;;;;1.15;99.30;101596.78;5081356;28;20116;-84
2022/03/04 01:37:40;;;;;;;40.60;17.30;;;;;;;1.10;99.59;101596.88;5081767;28;20032;-82
2022/03/04 01:40:08;;;;;;;41.13;17.27;;;;;;;1.11;99.51;101589.69;5065797;28;20040;-82
2022/03/04 01:42:35;;;;;;;47.17;19.75;;;;;;;1.24;100.00;101620.75;5098183;28;20052;-81
2022/03/04 01:45:03;;;;;;;48.40;17.90;;;;;;;1.07;100.00;101602.38;5085967;28;20054;-81
2022/03/04 01:47:29;;;;;;;47.97;19.08;;;;;;;1.06;100.00;101589.78;5080148;28;20067;-83
2022/03/04 01:49:54;;;;;;;41.70;17.60;;;;;;;1.04;100.00;101586.28;5082021;28;20032;-83
2022/03/04 01:52:20;;;;;;;45.20;18.27;;;;;;;1.24;100.00;101620.75;5097663;28;20055;-83
2022/03/04 01:54:46;;;;;;;46.22;18.38;;;;;;;1.19;100.00;101619.13;5083921;28;20052;-82
2022/03/04 01:57:11;;;;;;;51.63;18.42;;;;;;;0.90;100.00;101578.56;5093934;28;20020;-82
2022/03/04 01:59:37;;;;;;;49.47;19.40;;;;;;;1.05;100.00;101597.94;5080230;28;20096;-82
2022/03/04 02:02:03;;;;;;;41.25;17.27;;;;;;;1.01;100.00;101597.13;5080218;28;20043;-82
2022/03/04 02:04:28;;;;;;;51.38;18.08;;;;;;;1.05;100.00;101590.75;5076639;28;20025;-82
2022/03/04 02:06:54;;;;;;;46.13;18.02;;;;;;;1.16;99.82;101614.69;5100159;28;20032;-82
2022/03/04 02:09:20;;;;;;;41.20;18.73;;;;;;;1.02;100.00;101598.91;5087109;28;20488;-81
2022/03/04 02:11:48;;;;;;;43.10;17.60;;;;;;;1.11;100.00;101613.94;5100827;28;20023;-82
2022/03/04 02:14:15;;;;;;;45.15;18.58;;;;;;;1.23;100.00;101634.28;5085330;28;20043;-81
2022/03/04 02:16:46;;;;;;;45.47;17.88;;;;;;;0.90;100.00;101583.97;5098497;28;20027;-83
2022/03/04 02:19:13;;;;;;;47.47;18.00;;;;;;;0.98;100.00;101604.44;5096365;28;20035;-81
2022/03/04 02:21:55;;;;;;;44.50;18.30;;;;;;;1.13;100.00;101630.97;5097010;28;20043;-81
2022/03/04 02:24:22;;;;;;;42.58;17.48;;;;;;;1.12;100.00;101626.50;5096234;28;20043;-81
2022/03/04 02:26:52;;;;;;;46.63;18.13;;;;;;;1.03;100.00;101608.78;5089515;28;20040;-79
2022/03/04 02:29:18;;;;;;;52.67;18.17;;;;;;;0.86;100.00;101598.44;5080565;28;20036;-82
2022/03/04 02:31:44;;;;;;;44.35;17.50;;;;;;;0.88;100.00;101630.75;5080817;28;20080;-82
2022/03/04 02:34:10;;;;;;;43.22;18.67;;;;;;;0.47;100.00;101590.47;5082954;28;20032;-82
2022/03/04 02:36:35;;;;;;;36.90;17.50;;;;;;;0.61;100.00;101625.16;5098036;28;20028;-82
2022/03/04 02:39:01;;;;;;;47.03;18.58;;;;;;;0.59;100.00;101626.09;5080036;28;20029;-82
2022/03/04 02:41:26;;;;;;;44.13;18.30;;;;;;;0.51;100.00;101627.19;5081352;28;20040;-82
2022/03/04 02:43:52;;;;;;;39.72;17.30;;;;;;;0.50;100.00;101628.09;5110261;28;20059;-83
2022/03/04 02:46:18;;;;;;;43.50;18.58;;;;;;;0.40;100.00;101607.72;5096157;28;20032;-83
2022/03/04 02:48:43;;;;;;;49.17;18.98;;;;;;;0.38;100.00;101625.72;5118795;28;20106;-83
2022/03/04 02:51:09;;;;;;;44.22;19.52;;;;;;;0.48;100.00;101618.31;5090217;28;20032;-83
2022/03/04 02:53:35;;;;;;;48.53;18.05;;;;;;;0.15;100.00;101575.13;5083245;28;20056;-82
2022/03/04 02:56:00;;;;;;;42.42;18.13;;;;;;;0.24;100.00;101603.63;5090933;28;20082;-82
2022/03/04 02:58:26;;;;;;;44.40;18.67;;;;;;;0.12;100.00;101605.69;5081704;28;20054;-82
2022/03/04 03:00:52;;;;;;;44.20;17.77;;;;;;;0.38;100.00;101633.81;5064993;28;20475;-82
2022/03/04 03:03:18;;;;;;;40.55;18.10;;;;;;;0.29;100.00;101628.63;5080342;28;20028;-81
2022/03/04 03:05:43;;;;;;;41.63;18.08;;;;;;;0.33;100.00;101628.53;5096717;28;20521;-82
2022/03/04 03:08:09;;;;;;;49.85;18.65;;;;;;;0.16;100.00;101630.72;5090543;28;20039;-84
2022/03/04 03:10:35;;;;;;;47.92;18.85;;;;;;;0.02;100.00;101631.06;5084735;28;20020;-81
2022/03/04 03:13:01;;;;;;;50.85;20.13;;;;;;;0.01;100.00;101631.09;5080687;28;20024;-82
2022/03/04 03:15:27;;;;;;;46.97;17.60;;;;;;;-0.09;100.00;101617.81;5084055;28;20020;-81
2022/03/04 03:17:53;;;;;;;40.17;18.08;;;;;;;-0.12;100.00;101628.66;5100655;28;20031;-82
2022/03/04 03:20:19;;;;;;;43.35;18.70;;;;;;;-0.26;100.00;101623.59;5100126;28;20053;-81
2022/03/04 03:22:44;;;;;;;43.08;18.80;;;;;;;-0.17;100.00;101627.88;5090115;28;20044;-82
2022/03/04 03:25:10;;;;;;;47.67;19.38;;;;;;;-0.19;100.00;101627.03;5081891;28;20455;-82
2022/03/04 03:27:36;;;;;;;42.55;18.67;;;;;;;-0.26;100.00;101637.03;5077422;28;20086;-82
2022/03/04 03:30:07;;;;;;;50.28;18.85;;;;;;;-0.18;100.00;101628.81;5060784;28;20040;-82
2022/03/04 03:32:33;;;;;;;53.50;18.52;;;;;;;-0.17;100.00;101630.56;5060934;28;20029;-82
2022/03/04 03:34:58;;;;;;;48.08;19.45;;;;;;;-0.30;100.00;101615.63;5078680;28;20086;-83
2022/03/04 03:37:24;;;;;;;50.20;20.45;;;;;;;-0.27;100.00;101637.06;5094977;28;20116;-83
2022/03/04 03:39:49;;;;;;;48.97;18.30;;;;;;;-0.40;100.00;101633.75;5081031;28;20085;-82
2022/03/04 03:42:15;;;;;;;45.20;18.30;;;;;;;-0.46;100.00;101612.34;5077687;28;20032;-82
2022/03/04 03:44:41;;;;;;;42.78;18.65;;;;;;;-0.42;100.00;101636.47;5057872;28;20033;-83
2022/03/04 03:47:09;;;;;;;42.92;19.85;;;;;;;-0.79;100.00;101571.81;5075163;28;20120;-83
2022/03/04 03:49:36;;;;;;;47.63;18.63;;;;;;;-0.65;100.00;101595.75;5078224;28;20142;-81
2022/03/04 03:52:03;;;;;;;49.03;19.85;;;;;;;-0.46;100.00;101633.88;5096677;28;20023;-81
2022/03/04 03:54:29;;;;;;;45.17;19.23;;;;;;;-0.78;100.00;101576.28;5072300;28;20533;-82
2022/03/04 03:56:54;;;;;;;41.05;17.67;;;;;;;-0.63;100.00;101580.44;5080518;28;20095;-82
2022/03/04 03:59:20;;;;;;;55.05;20.70;;;;;;;-0.46;100.00;101618.66;5081431;28;20040;-82
2022/03/04 04:01:46;;;;;;;52.60;20.55;;;;;;;-0.59;100.00;101572.28;5112468;28;20093;-81
2022/03/04 04:04:12;;;;;;;50.63;20.33;;;;;;;-0.25;100.00;101614.59;5098466;28;20024;-82
2022/03/04 04:06:39;;;;;;;51.88;20.15;;;;;;;-0.42;100.00;101585.38;5082265;28;20044;-82
2022/03/04 04:09:06;;;;;;;39.53;18.35;;;;;;;-0.42;100.00;101571.03;5079216;28;20029;-84
2022/03/04 04:11:35;;;;;;;52.05;20.00;;;;;;;-0.28;100.00;101586.84;5080070;28;20024;-84
2022/03/04 04:14:02;;;;;;;58.45;19.40;;;;;;;-0.13;100.00;101615.22;5079066;28;20033;-82
2022/03/04 04:16:28;;;;;;;50.25;19.20;;;;;;;0.06;100.00;101654.28;5077267;28;20115;-81
2022/03/04 04:18:54;;;;;;;46.20;18.45;;;;;;;-0.16;100.00;101626.97;5099084;28;20111;-82
2022/03/04 04:21:19;;;;;;;44.00;18.98;;;;;;;0.01;100.00;101647.25;5088669;28;20047;-82
2022/03/04 04:23:45;;;;;;;54.95;19.50;;;;;;;0.01;100.00;101664.25;5073710;28;20112;-82
2022/03/04 04:26:10;;;;;;;48.95;19.58;;;;;;;-0.01;100.00;101668.81;5063981;28;20113;-81
2022/03/04 04:28:36;;;;;;;51.00;20.95;;;;;;;-0.10;100.00;101655.53;5080345;28;20044;-82
2022/03/04 04:31:02;;;;;;;51.40;19.88;;;;;;;-0.22;100.00;101645.94;5063731;28;20480;-82
2022/03/04 04:33:28;;;;;;;51.25;21.13;;;;;;;-0.20;100.00;101662.91;5080903;28;20054;-82
2022/03/04 04:35:54;;;;;;;47.10;20.92;;;;;;;-0.54;100.00;101604.47;5089036;28;20498;-82
2022/03/04 04:38:20;;;;;;;56.92;20.58;;;;;;;-0.50;100.00;101611.53;5098699;28;20024;-82
2022/03/04 04:40:46;;;;;;;47.33;19.75;;;;;;;-0.48;100.00;101606.13;5100382;28;20028;-81
2022/03/04 04:43:11;;;;;;;50.67;20.13;;;;;;;-0.16;100.00;101664.66;5099569;28;20066;-81
2022/03/04 04:45:37;;;;;;;54.78;21.42;;;;;;;-0.52;100.00;101616.06;5087334;28;20015;-82
2022/03/04 04:48:03;;;;;;;52.78;19.73;;;;;;;-0.30;100.00;101656.84;5063384;28;20024;-82
2022/03/04 04:50:28;;;;;;;62.42;22.42;;;;;;;-0.25;100.00;101670.22;5083062;28;20094;-82
2022/03/04 04:52:54;;;;;;;56.75;22.50;;;;;;;-0.32;100.00;101664.06;5075835;28;20066;-80
2022/03/04 04:55:19;;;;;;;47.58;20.02;;;;;;;-0.37;100.00;101657.91;5093334;28;20033;-82
2022/03/04 04:57:45;;;;;;;54.17;20.95;;;;;;;-0.49;100.00;101647.38;5104046;28;20082;-82
2022/03/04 05:00:11;;;;;;;58.08;22.40;;;;;;;-0.44;100.00;101664.34;5121416;28;20103;-84
2022/03/04 05:02:37;;;;;;;52.72;22.38;;;;;;;-0.51;100.00;101660.00;5088402;28;20032;-84
2022/03/04 05:05:03;;;;;;;64.28;24.52;;;;;;;-0.46;100.00;101661.69;5063837;28;20045;-83
2022/03/04 05:07:29;;;;;;;53.65;22.13;;;;;;;-0.44;100.00;101669.72;5113565;28;20368;-82
2022/03/04 05:09:55;;;;;;;57.83;23.67;;;;;;;-0.35;100.00;101674.03;5095113;28;20032;-84
2022/03/04 05:12:20;;;;;;;59.53;22.20;;;;;;;-0.38;100.00;101657.03;5096280;28;20455;-83
2022/03/04 05:14:46;;;;;;;58.53;22.65;;;;;;;-0.32;100.00;101668.56;5124360;28;20032;-83
2022/03/04 05:17:11;;;;;;;62.88;24.42;;;;;;;-0.35;100.00;101656.06;5087967;28;20068;-83
2022/03/04 05:19:37;;;;;;;69.65;23.27;;;;;;;-0.31;100.00;101673.94;5070275;28;20064;-82
2022/03/04 05:22:02;;;;;;;64.85;23.83;;;;;;;-0.45;100.00;101646.41;5087858;28;20071;-82
2022/03/04 05:24:28;;;;;;;67.03;24.95;;;;;;;-0.40;100.00;101660.66;5104602;28;20036;-83
2022/03/04 05:26:53;;;;;;;68.28;25.27;;;;;;;-0.43;100.00;101666.97;5074705;28;20508;-82
2022/03/04 05:29:19;;;;;;;73.60;26.15;;;;;;;-0.64;100.00;101638.72;5090153;28;20044;-82
2022/03/04 05:31:44;;;;;;;65.40;24.13;;;;;;;-0.78;100.00;101630.91;5087373;28;20032;-82
2022/03/04 05:34:12;;;;;;;61.63;24.70;;;;;;;-0.53;100.00;101680.66;5086000;28;20020;-82
2022/03/04 05:36:38;;;;;;;81.55;25.17;;;;;;;-0.67;100.00;101652.22;5084387;28;20029;-83
2022/03/04 05:39:05;;;;;;;63.47;24.83;;;;;;;-0.49;100.00;101685.03;5094433;28;20039;-82
2022/03/04 05:41:30;;;;;;;71.65;24.92;;;;;;;-0.53;100.00;101680.66;5073766;28;20123;-83
2022/03/04 05:43:56;;;;;;;67.13;25.05;;;;;;;-0.47;100.00;101692.19;5072848;28;20491;-83
2022/03/04 05:46:22;;;;;;;67.95;24.45;;;;;;;-0.49;100.00;101687.72;5093096;28;20037;-82
2022/03/04 05:48:48;;;;;;;73.25;25.63;;;;;;;-0.56;100.00;101682.50;5069499;28;20046;-82
2022/03/04 05:51:14;;;;;;;65.00;23.98;;;;;;;-0.64;100.00;101676.38;5082905;28;20573;-80
2022/03/04 05:53:39;;;;;;;64.95;24.80;;;;;;;-0.60;100.00;101680.75;5073429;28;20395;-80
2022/03/04 05:56:07;;;;;;;71.18;24.92;;;;;;;-0.58;100.00;101689.69;5087025;28;20079;-82
2022/03/04 05:58:33;;;;;;;63.63;24.63;;;;;;;-0.54;100.00;101695.91;5085330;28;20109;-81
2022/03/04 06:00:59;;;;;;;61.42;24.13;;;;;;;-0.54;100.00;101701.28;5061920;28;20032;-82
2022/03/04 06:03:24;;;;;;;70.38;24.92;;;;;;;-0.63;100.00;101688.00;5068323;28;20388;-82
2022/03/04 06:05:50;;;;;;;65.97;25.45;;;;;;;-0.56;100.00;101701.31;5082044;28;20102;-82
2022/03/04 06:08:16;;;;;;;72.10;25.83;;;;;;;-0.52;100.00;101709.34;5081960;28;20070;-82
2022/03/04 06:10:41;;;;;;;61.70;24.27;;;;;;;-0.51;100.00;101713.78;5083960;28;20377;-83
2022/03/04 06:13:07;;;;;;;74.25;24.52;;;;;;;-0.49;100.00;101704.78;5086183;28;20068;-83
2022/03/04 06:15:33;;;;;;;77.75;26.92;;;;;;;-0.59;100.00;101704.06;5083454;28;20020;-83
2022/03/04 06:17:58;;;;;;;72.88;25.80;;;;;;;-0.56;100.00;101719.25;5072200;28;20037;-82
2022/03/04 06:20:25;;;;;;;78.80;27.15;;;;;;;-0.51;100.00;101716.47;5061597;28;20025;-82
2022/03/04 06:22:50;;;;;;;83.30;25.65;;;;;;;-0.61;100.00;101702.31;5098866;28;20043;-83
2022/03/04 06:25:16;;;;;;;90.40;26.63;;;;;;;-0.61;100.00;101711.28;5101899;28;20473;-82
2022/03/04 06:27:53;;;;;;;79.03;26.70;;;;;;;-0.58;100.00;101705.81;5080459;28;20033;-82
2022/03/04 06:30:19;;;;;;;88.90;27.17;;;;;;;-0.54;100.00;101713.84;5068631;28;20062;-83
2022/03/04 06:32:44;;;;;;;80.10;26.55;;;;;;;-0.58;100.00;101713.00;5084750;28;20028;-82
2022/03/04 06:35:10;;;;;;;79.53;26.25;;;;;;;-0.56;100.00;101725.53;5083079;28;20120;-82
2022/03/04 06:37:35;;;;;;;72.35;26.52;;;;;;;-0.50;100.00;101726.31;5093313;28;20039;-81
2022/03/04 06:40:04;;;;;;;71.15;26.80;;;;;;;-0.50;100.00;101718.25;5111073;28;20043;-82
2022/03/04 06:42:29;;;;;;;76.20;27.90;;;;;;;-0.52;100.00;101728.16;5102964;28;20044;-82
2022/03/04 06:44:55;;;;;;;89.60;27.95;;;;;;;-0.49;100.00;101730.75;5081399;28;20140;-82
2022/03/04 06:47:21;;;;;;;83.13;27.60;;;;;;;-0.51;100.00;101721.84;5084790;28;20133;-82
2022/03/04 06:49:46;;;;;;;84.18;28.83;;;;;;;-0.49;100.00;101720.00;5085578;28;20033;-82
2022/03/04 06:52:11;;;;;;;75.15;27.33;;;;;;;-0.37;100.00;101725.16;5085763;28;20048;-82
2022/03/04 06:54:37;;;;;;;81.45;29.15;;;;;;;-0.28;100.00;101727.69;5084821;28;20045;-82
2022/03/04 06:57:03;;;;;;;90.28;29.20;;;;;;;-0.26;100.00;101724.97;5080516;28;20430;-82
2022/03/04 06:59:29;;;;;;;89.85;29.15;;;;;;;-0.14;100.00;101729.22;5105844;28;20052;-82
2022/03/04 07:01:55;;;;;;;91.03;30.88;;;;;;;0.06;100.00;101737.72;5092104;28;20046;-82
2022/03/04 07:04:20;;;;;;;93.80;30.25;;;;;;;0.18;100.00;101725.81;5087317;28;20119;-82
2022/03/04 07:06:46;;;;;;;86.38;28.90;;;;;;;0.45;100.00;101739.59;5105819;28;20050;-82
2022/03/04 07:09:12;;;;;;;81.68;29.45;;;;;;;0.54;100.00;101736.69;5088816;28;20024;-81
2022/03/04 07:11:38;;;;;;;93.28;30.52;;;;;;;0.78;100.00;101737.91;5086376;28;20470;-79
2022/03/04 07:14:03;;;;;;;85.25;29.70;;;;;;;0.92;100.00;101729.50;5103501;28;20028;-80
2022/03/04 07:16:30;;;;;;;83.13;27.95;;;;;;;1.32;100.00;101747.34;5065872;28;20120;-79
2022/03/04 07:18:55;;;;;;;82.20;29.38;;;;;;;1.24;100.00;101743.97;5082352;28;20089;-80
2022/03/04 07:21:21;;;;;;;89.25;28.90;;;;;;;1.37;100.00;101748.09;5083171;28;20102;-80
2022/03/04 07:23:46;;;;;;;97.57;31.15;;;;;;;1.73;100.00;101747.16;5086867;28;20051;-77
2022/03/04 07:26:12;;;;;;;91.32;28.13;;;;;;;1.60;100.00;101760.97;5096058;28;20135;-78
2022/03/04 07:28:37;;;;;;;105.57;31.85;;;;;;;1.72;100.00;101766.97;5078358;28;20472;-77
2022/03/04 07:31:03;;;;;;;123.50;34.60;;;;;;;1.72;100.00;101761.56;5086490;28;20467;-78
2022/03/04 07:33:29;;;;;;;106.53;33.45;;;;;;;1.65;100.00;101755.47;5081855;28;20104;-79
2022/03/04 07:35:54;;;;;;;115.35;33.35;;;;;;;1.78;100.00;101756.91;5067859;28;20056;-77
2022/03/04 07:38:20;;;;;;;121.43;34.40;;;;;;;1.77;100.00;101738.94;5072472;28;20028;-78
2022/03/04 07:40:46;;;;;;;109.30;33.63;;;;;;;1.86;100.00;101751.28;5069612;28;20035;-80
2022/03/04 07:43:12;;;;;;;117.97;34.22;;;;;;;1.95;100.00;101759.13;5081379;28;20037;-83
2022/03/04 07:45:37;;;;;;;128.73;36.80;;;;;;;2.10;100.00;101752.41;5087298;28;20050;-82
2022/03/04 07:48:03;;;;;;;134.40;36.78;;;;;;;1.97;100.00;101740.19;5092097;28;20028;-81
2022/03/04 07:50:28;;;;;;;125.68;37.17;;;;;;;2.19;100.00;101743.13;5078782;28;20077;-82
2022/03/04 07:52:54;;;;;;;115.25;35.75;;;;;;;2.47;100.00;101761.22;5079882;28;20126;-80
2022/03/04 07:55:21;;;;;;;131.45;37.05;;;;;;;2.61;100.00;101764.38;5089861;28;20040;-80
2022/03/04 07:57:46;;;;;;;127.40;36.78;;;;;;;2.64;100.00;101753.47;5088235;28;20103;-80
2022/03/04 08:00:15;;;;;;;135.02;36.42;;;;;;;2.85;100.00;101764.53;5079886;28;20131;-81
2022/03/04 08:02:41;;;;;;;138.10;37.15;;;;;;;3.04;100.00;101770.22;5085666;28;20353;-81
2022/03/04 08:05:10;;;;;;;138.20;37.20;;;;;;;3.21;98.23;101765.13;5092192;28;20047;-81
2022/03/04 08:07:37;;;;;;;123.70;35.97;;;;;;;3.30;97.15;101762.13;5081909;28;20070;-81
2022/03/04 08:10:05;;;;;;;128.32;34.50;;;;;;;3.39;95.87;101758.19;5101586;28;20024;-80
2022/03/04 08:12:32;;;;;;;122.38;36.47;;;;;;;3.55;94.74;101760.38;5086016;28;20152;-81
2022/03/04 08:14:58;;;;;;;116.05;33.75;;;;;;;3.81;93.21;101762.16;5079503;28;20043;-79
2022/03/04 08:17:23;;;;;;;103.70;30.67;;;;;;;3.99;89.58;101769.59;5103559;28;20043;-80
2022/03/04 08:19:49;;;;;;;109.82;31.90;;;;;;;4.00;89.03;101768.69;5107736;28;20060;-80
2022/03/04 08:22:15;;;;;;;97.15;30.90;;;;;;;4.01;89.81;101783.09;5093121;28;20131;-81
2022/03/04 08:24:40;;;;;;;92.50;30.20;;;;;;;4.17;86.93;101775.28;5087222;28;20721;-82
2022/03/04 08:27:06;;;;;;;83.45;27.52;;;;;;;4.22;89.47;101785.00;5086863;28;20111;-82
2022/03/04 08:29:31;;;;;;;70.80;26.40;;;;;;;4.51;87.08;101780.31;5090206;28;20061;-82
2022/03/04 08:31:57;;;;;;;70.68;26.17;;;;;;;4.59;87.92;101796.25;5087134;28;20037;-83
2022/03/04 08:34:23;;;;;;;70.10;25.67;;;;;;;4.53;88.59;101783.84;5092056;28;20035;-83
2022/03/04 08:36:49;;;;;;;62.22;24.85;;;;;;;4.79;84.51;101773.81;5105437;28;20493;-81
2022/03/04 08:39:17;;;;;;;63.35;24.30;;;;;;;4.69;84.00;101803.13;5070676;28;20041;-81
2022/03/04 08:41:43;;;;;;;57.10;22.05;;;;;;;4.77;85.52;101790.13;5088496;28;20477;-82
2022/03/04 08:44:08;;;;;;;53.05;22.13;;;;;;;5.50;82.33;101809.75;5089238;28;20028;-82
2022/03/04 08:46:36;;;;;;;46.30;20.55;;;;;;;5.43;82.20;101804.66;5100356;28;20054;-83
2022/03/04 08:49:03;;;;;;;43.55;19.05;;;;;;;5.65;80.45;101808.22;5109225;28;20380;-82
2022/03/04 08:51:28;;;;;;;41.67;17.98;;;;;;;5.47;80.09;101806.28;5071041;28;20032;-83
2022/03/04 08:53:54;;;;;;;49.20;20.40;;;;;;;5.79;80.91;101813.06;5069909;28;20047;-82
2022/03/04 08:56:20;;;;;;;39.53;18.23;;;;;;;6.23;76.43;101822.91;5089234;28;20011;-83
2022/03/04 08:58:46;;;;;;;35.92;17.13;;;;;;;6.09;76.02;101815.41;5067213;28;20037;-83
2022/03/04 09:01:11;;;;;;;42.65;16.98;;;;;;;6.39;75.97;101802.22;5083594;28;20400;-83
2022/03/04 09:03:37;;;;;;;36.97;17.00;;;;;;;6.35;76.42;101806.06;5087826;28;20127;-83
2022/03/04 09:06:03;;;;;;;34.63;17.13;;;;;;;6.73;74.51;101808.81;5089770;28;20391;-83
2022/03/04 09:08:28;;;;;;;32.90;17.15;;;;;;;6.88;71.44;101807.19;5105106;28;20416;-83
2022/03/04 09:10:54;;;;;;;33.72;16.75;;;;;;;7.25;70.87;101796.34;5105433;28;20028;-83
2022/03/04 09:13:19;;;;;;;34.22;16.40;;;;;;;6.78;72.52;101798.59;5089368;28;20032;-83
2022/03/04 09:15:45;;;;;;;33.58;17.77;;;;;;;6.98;71.72;101807.63;5090636;28;20078;-84
2022/03/04 09:18:10;;;;;;;35.33;16.60;;;;;;;7.42;71.92;101810.00;5089085;28;20052;-83
2022/03/04 09:20:36;;;;;;;37.53;16.20;;;;;;;7.51;69.30;101797.72;5122810;28;20036;-83
2022/03/04 09:23:02;;;;;;;37.50;16.60;;;;;;;7.90;68.43;101797.53;5101270;28;20032;-83
2022/03/04 09:25:28;;;;;;;32.70;16.67;;;;;;;7.98;69.80;101797.09;5108317;28;20154;-83
2022/03/04 09:27:53;;;;;;;30.52;16.63;;;;;;;7.83;68.85;101785.16;5097999;28;20020;-84
2022/03/04 09:30:19;;;;;;;32.90;16.52;;;;;;;7.76;68.72;101801.94;5102012;28;20139;-83
2022/03/04 09:32:45;;;;;;;36.17;15.85;;;;;;;8.74;66.93;101793.00;5107149;28;20028;-83
2022/03/04 09:35:11;;;;;;;29.63;16.20;;;;;;;8.15;68.48;101798.94;5088832;28;20114;-83
2022/03/04 09:37:36;;;;;;;30.80;16.90;;;;;;;8.56;65.84;101797.66;5107027;28;20024;-83
2022/03/04 09:40:06;;;;;;;32.22;16.73;;;;;;;8.74;65.65;101802.13;5107991;28;20024;-83
2022/03/04 09:42:33;;;;;;;32.25;15.85;;;;;;;8.71;64.10;101801.41;5087571;28;20522;-83
2022/03/04 09:44:59;;;;;;;34.63;17.33;;;;;;;9.11;62.92;101805.47;5069816;28;20025;-83
2022/03/04 09:47:25;;;;;;;29.88;15.63;;;;;;;9.22;60.39;101795.78;5079712;28;20028;-83
2022/03/04 09:49:52;;;;;;;29.98;16.52;;;;;;;8.74;63.14;101795.75;5100210;28;20058;-83
2022/03/04 09:52:18;;;;;;;32.20;16.17;;;;;;;8.60;65.25;101788.34;5101252;28;20021;-83
2022/03/04 09:54:53;;;;;;;33.92;17.23;;;;;;;9.05;61.63;101788.53;5064940;28;20043;-84
2022/03/04 09:57:19;;;;;;;29.42;15.52;;;;;;;9.38;59.63;101794.78;5082400;28;20072;-82
2022/03/04 09:59:45;;;;;;;30.58;16.20;;;;;;;9.03;59.24;101785.91;5066087;28;20029;-83
2022/03/04 10:02:12;;;;;;;34.83;17.13;;;;;;;8.97;59.29;101786.28;5063122;28;20067;-83
2022/03/04 10:04:38;;;;;;;34.33;18.10;;;;;;;8.73;62.38;101774.91;5081464;28;20060;-85
2022/03/04 10:07:17;;;;;;;33.22;16.55;;;;;;;9.33;60.07;101785.06;5047509;28;20405;-83
2022/03/04 10:09:48;;;;;;;29.25;16.35;;;;;;;8.97;61.52;101789.00;5077074;28;20119;-83
2022/03/04 10:12:18;;;;;;;28.35;15.90;;;;;;;9.43;59.36;101777.22;5067612;28;20049;-83
2022/03/04 10:15:07;;;;;;;28.73;16.77;;;;;;;9.34;61.32;101795.03;5082828;28;20060;-84
2022/03/04 10:17:35;;;;;;;30.77;16.60;;;;;;;9.30;58.23;101794.34;5063838;28;20043;-83
2022/03/04 10:20:06;;;;;;;33.72;16.70;;;;;;;9.81;59.58;101794.06;5081150;28;20028;-83
2022/03/04 10:22:43;;;;;;;28.55;15.57;;;;;;;9.73;57.52;101793.66;5081067;28;20032;-83
2022/03/04 10:25:24;;;;;;;35.47;16.98;;;;;;;9.49;58.69;101785.06;5062073;28;20024;-83
2022/03/04 10:27:51;;;;;;;30.20;16.65;;;;;;;9.23;59.98;101786.59;5085571;28;20032;-83
2022/03/04 10:30:29;;;;;;;29.52;16.67;;;;;;;10.00;57.82;101781.97;5101978;28;20054;-84
2022/03/04 10:33:08;;;;;;;28.70;15.77;;;;;;;9.51;58.94;101785.84;5078437;28;20041;-83
2022/03/04 10:35:36;;;;;;;31.80;17.20;;;;;;;9.71;58.45;101760.06;5045205;28;20029;-84
2022/03/04 10:38:04;;;;;;;28.48;16.00;;;;;;;10.24;56.60;101785.06;5045008;28;20082;-83
2022/03/04 10:40:43;;;;;;;29.50;16.33;;;;;;;10.28;56.04;101778.38;5044248;28;20037;-82
2022/03/04 10:43:10;;;;;;;29.42;16.50;;;;;;;10.17;56.10;101781.81;5061162;28;20128;-83
2022/03/04 10:45:40;;;;;;;31.88;17.58;;;;;;;10.24;57.46;101785.91;5074660;28;20339;-83
2022/03/04 10:48:11;;;;;;;27.45;16.33;;;;;;;9.96;58.49;101772.22;5070944;28;20162;-83
2022/03/04 10:50:40;;;;;;;29.33;17.60;;;;;;;9.97;58.10;101777.59;5084256;28;20084;-83
2022/03/04 10:53:33;;;;;;;30.02;17.25;;;;;;;9.90;58.07;101767.97;5064919;28;20380;-82
2022/03/04 10:56:06;;;;;;;29.52;17.02;;;;;;;10.39;55.33;101764.94;5088895;28;20059;-82
2022/03/04 10:58:37;;;;;;;28.52;16.05;;;;;;;9.83;58.73;101777.56;5116592;28;20036;-82
2022/03/04 11:01:09;;;;;;;29.27;16.50;;;;;;;9.67;58.79;101785.81;5083214;28;20051;-82
2022/03/04 11:03:36;;;;;;;31.92;17.40;;;;;;;9.84;58.19;101777.47;5079584;28;20029;-82
2022/03/04 11:06:04;;;;;;;32.38;16.70;;;;;;;10.23;55.79;101780.53;5095571;28;20164;-83